createdAt,value
2023-05-25T00:01:49.551Z,6.00
2023-05-25T00:04:19.578Z,5.40
2023-05-25T00:06:47.900Z,5.70
2023-05-25T00:09:15.714Z,6.60
2023-05-25T00:11:43.342Z,5.60
2023-05-25T00:14:11.110Z,5.50
2023-05-25T00:16:41.038Z,5.50
2023-05-25T00:19:11.420Z,4.70
2023-05-25T00:21:38.985Z,7.00
2023-05-25T00:24:06.709Z,5.70
2023-05-25T00:26:35.578Z,6.20
2023-05-25T00:29:07.322Z,5.80
2023-05-25T00:31:36.966Z,6.30
2023-05-25T00:34:04.586Z,6.30
2023-05-25T00:36:32.245Z,6.00
2023-05-25T00:38:59.835Z,5.40
2023-05-25T00:41:28.312Z,5.90
2023-05-25T00:43:57.282Z,6.00
2023-05-25T00:46:25.244Z,5.90
2023-05-25T00:48:53.567Z,5.80
2023-05-25T00:51:21.703Z,5.00
2023-05-25T00:53:50.945Z,5.50
2023-05-25T00:56:23.378Z,5.60
2023-05-25T00:58:53.172Z,4.80
2023-05-25T01:01:22.214Z,5.70
2023-05-25T01:03:54.163Z,6.20
2023-05-25T01:06:22.915Z,6.60
2023-05-25T01:08:53.036Z,6.30
2023-05-25T01:11:23.556Z,5.70
2023-05-25T01:13:53.584Z,6.10
2023-05-25T01:16:21.335Z,6.80
2023-05-25T01:18:48.957Z,6.00
2023-05-25T01:21:29.638Z,6.10
2023-05-25T01:24:12.206Z,6.40
2023-05-25T01:26:53.922Z,6.50
2023-05-25T01:29:21.938Z,6.20
2023-05-25T01:31:49.792Z,6.70
2023-05-25T01:34:17.570Z,6.40
2023-05-25T01:36:45.302Z,5.90
2023-05-25T01:39:13.027Z,6.40
2023-05-25T01:41:40.771Z,6.60
2023-05-25T01:44:08.549Z,6.50
2023-05-25T01:46:39.732Z,6.40
2023-05-25T01:49:39.145Z,6.40
2023-05-25T01:52:15.874Z,6.20
2023-05-25T01:54:47.384Z,6.10
2023-05-25T01:57:16.155Z,6.00
2023-05-25T01:59:44.404Z,6.30
2023-05-25T02:02:16.653Z,5.90
2023-05-25T02:04:44.478Z,6.20
2023-05-25T02:07:12.186Z,5.90
2023-05-25T02:09:40.021Z,6.70
2023-05-25T02:12:08.346Z,6.60
2023-05-25T02:14:35.957Z,6.00
2023-05-25T02:17:04.045Z,6.00
2023-05-25T02:19:31.814Z,7.40
2023-05-25T02:21:59.512Z,6.20
2023-05-25T02:24:27.466Z,6.40
2023-05-25T02:26:55.215Z,6.70
2023-05-25T02:29:23.039Z,6.30
2023-05-25T02:31:50.776Z,6.50
2023-05-25T02:34:18.509Z,6.60
2023-05-25T02:36:46.740Z,5.60
2023-05-25T02:39:14.561Z,6.10
2023-05-25T02:41:43.622Z,6.80
2023-05-25T02:44:11.162Z,6.70
2023-05-25T02:46:38.889Z,6.30
2023-05-25T02:49:07.275Z,6.60
2023-05-25T02:51:36.120Z,6.60
2023-05-25T02:54:03.836Z,6.80
2023-05-25T02:56:32.140Z,6.30
2023-05-25T02:59:00.129Z,6.40
2023-05-25T03:01:32.086Z,5.90
2023-05-25T03:04:01.464Z,7.00
2023-05-25T03:06:32.135Z,7.40
2023-05-25T03:09:05.221Z,7.20
2023-05-25T03:11:33.024Z,6.30
2023-05-25T03:14:01.356Z,7.10
2023-05-25T03:16:29.787Z,7.00
2023-05-25T03:18:59.178Z,7.00
2023-05-25T03:21:27.831Z,6.80
2023-05-25T03:23:55.542Z,6.60
2023-05-25T03:26:23.211Z,6.90
2023-05-25T03:28:52.804Z,6.80
2023-05-25T03:31:20.788Z,7.90
2023-05-25T03:33:48.932Z,7.80
2023-05-25T03:36:17.992Z,7.00
2023-05-25T03:38:46.177Z,7.80
2023-05-25T03:41:13.792Z,7.50
2023-05-25T03:43:41.389Z,7.60
2023-05-25T03:46:11.845Z,7.20
2023-05-25T03:48:39.600Z,7.30
2023-05-25T03:51:07.206Z,8.70
2023-05-25T03:53:34.809Z,7.40
2023-05-25T03:56:02.354Z,6.60
2023-05-25T03:58:30.010Z,7.70
2023-05-25T04:00:57.771Z,8.30
2023-05-25T04:03:25.427Z,7.20
2023-05-25T04:05:53.317Z,8.00
2023-05-25T04:08:22.778Z,8.10
2023-05-25T04:10:50.476Z,8.20
2023-05-25T04:13:18.137Z,7.90
2023-05-25T04:15:46.286Z,8.40
2023-05-25T04:18:19.369Z,7.60
2023-05-25T04:20:48.395Z,8.80
2023-05-25T04:23:17.672Z,7.80
2023-05-25T04:25:46.030Z,8.60
2023-05-25T04:28:15.102Z,8.30
2023-05-25T04:30:57.461Z,18.20
2023-05-25T04:33:47.779Z,38.20
2023-05-25T04:36:26.210Z,16.80
2023-05-25T04:38:55.617Z,12.20
2023-05-25T04:41:26.049Z,19.50
2023-05-25T04:46:44.799Z,9.40
2023-05-25T04:49:19.106Z,9.10
2023-05-25T04:51:46.662Z,9.60
2023-05-25T04:54:14.968Z,13.60
2023-05-25T04:56:42.588Z,12.20
2023-05-25T04:59:11.195Z,10.30
2023-05-25T05:01:42.296Z,8.70
2023-05-25T05:04:13.055Z,9.40
2023-05-25T05:06:40.882Z,9.20
2023-05-25T05:09:11.881Z,9.10
2023-05-25T05:11:39.515Z,8.80
2023-05-25T05:14:07.798Z,8.00
2023-05-25T05:16:37.803Z,7.70
2023-05-25T05:19:05.488Z,6.10
2023-05-25T05:21:33.550Z,9.20
2023-05-25T05:24:02.291Z,8.80
2023-05-25T05:26:30.652Z,6.60
2023-05-25T05:28:59.338Z,5.70
2023-05-25T05:31:29.570Z,6.80
2023-05-25T05:33:57.775Z,6.00
2023-05-25T05:36:25.972Z,5.70
2023-05-25T05:39:02.037Z,6.20
2023-05-25T05:50:13.887Z,5.80
2023-05-25T05:54:04.048Z,5.10
2023-05-25T05:57:41.991Z,4.60
2023-05-25T06:01:20.526Z,4.60
2023-05-25T06:08:29.185Z,4.50
2023-05-25T06:12:05.126Z,4.60
2023-05-25T06:18:25.836Z,4.20
2023-05-25T06:21:48.553Z,4.60
2023-05-25T06:25:06.440Z,3.70
2023-05-25T06:28:35.457Z,4.00
2023-05-25T06:31:51.673Z,3.80
2023-05-25T06:34:31.774Z,4.40
2023-05-25T06:38:02.378Z,4.50
2023-05-25T06:41:38.579Z,3.80
2023-05-25T06:44:24.916Z,4.30
2023-05-25T06:47:07.424Z,3.70
2023-05-25T06:49:35.489Z,3.70
2023-05-25T06:52:08.948Z,4.10
2023-05-25T06:54:39.377Z,3.70
2023-05-25T06:57:07.153Z,3.70
2023-05-25T06:59:35.020Z,3.70
2023-05-25T07:02:02.618Z,4.20
2023-05-25T07:04:30.274Z,3.60
2023-05-25T07:07:04.381Z,3.70
2023-05-25T07:09:38.407Z,4.50
2023-05-25T07:20:05.016Z,4.40
2023-05-25T07:23:05.611Z,3.80
2023-05-25T07:25:45.153Z,3.90
2023-05-25T07:28:35.202Z,4.10
2023-05-25T07:31:11.327Z,3.20
2023-05-25T07:34:25.824Z,4.20
2023-05-25T07:36:56.198Z,3.80
2023-05-25T07:39:24.641Z,3.50
2023-05-25T07:42:13.961Z,3.70
2023-05-25T07:45:18.993Z,3.50
2023-05-25T07:47:59.396Z,3.20
2023-05-25T07:51:04.104Z,3.70
2023-05-25T07:53:49.839Z,3.40
2023-05-25T07:56:25.013Z,3.50
2023-05-25T07:59:11.014Z,3.30
2023-05-25T08:02:59.652Z,3.60
2023-05-25T08:06:09.678Z,3.30
2023-05-25T08:09:50.207Z,3.50
2023-05-25T08:16:51.719Z,4.00
2023-05-25T08:19:34.558Z,3.80
2023-05-25T08:22:45.629Z,4.30
2023-05-25T08:25:20.650Z,3.30
2023-05-25T08:27:52.088Z,3.80
2023-05-25T08:30:23.501Z,3.70
2023-05-25T08:32:52.303Z,4.30
2023-05-25T08:35:20.817Z,4.40
2023-05-25T08:37:51.695Z,3.70
2023-05-25T08:40:23.455Z,3.40
2023-05-25T08:42:52.038Z,3.90
2023-05-25T08:46:00.649Z,3.90
2023-05-25T08:48:53.746Z,4.30
2023-05-25T08:51:58.322Z,3.70
2023-05-25T08:54:34.909Z,3.90
2023-05-25T08:57:40.328Z,3.20
2023-05-25T09:01:32.455Z,3.30
2023-05-25T09:13:13.163Z,3.80
2023-05-25T09:16:12.085Z,4.00
2023-05-25T09:18:41.983Z,3.50
2023-05-25T09:21:42.594Z,3.80
2023-05-25T09:27:24.673Z,3.70
2023-05-25T09:30:33.094Z,3.30
2023-05-25T09:36:51.129Z,3.00
2023-05-25T09:39:55.269Z,2.10
2023-05-25T09:42:35.805Z,2.70
2023-05-25T09:45:29.401Z,3.60
2023-05-25T09:48:45.045Z,4.40
2023-05-25T09:51:33.326Z,5.10
2023-05-25T09:54:25.089Z,6.50
2023-05-25T09:56:52.646Z,6.20
2023-05-25T09:59:20.320Z,5.20
2023-05-25T10:01:51.367Z,5.10
2023-05-25T10:04:19.270Z,5.70
2023-05-25T10:06:47.301Z,6.20
2023-05-25T10:09:15.580Z,6.50
2023-05-25T10:11:43.173Z,6.40
2023-05-25T10:14:10.832Z,5.60
2023-05-25T10:16:39.194Z,5.20
2023-05-25T10:19:18.591Z,5.80
2023-05-25T10:21:51.830Z,5.20
2023-05-25T10:24:35.233Z,5.90
2023-05-25T10:27:14.826Z,6.60
2023-05-25T10:29:52.744Z,8.50
2023-05-25T10:32:20.371Z,7.60
2023-05-25T10:34:48.134Z,6.80
2023-05-25T10:37:15.846Z,7.80
2023-05-25T10:39:45.758Z,7.60
2023-05-25T10:42:13.827Z,7.80
2023-05-25T10:44:44.919Z,8.40
2023-05-25T10:47:14.594Z,7.50
2023-05-25T10:49:54.495Z,6.70
2023-05-25T10:52:22.334Z,7.70
2023-05-25T10:54:50.039Z,8.70
2023-05-25T10:57:22.048Z,7.20
2023-05-25T11:00:00.766Z,8.30
2023-05-25T11:02:29.197Z,8.40
2023-05-25T11:05:27.839Z,6.90
2023-05-25T11:08:23.637Z,8.70
2023-05-25T11:10:53.170Z,7.70
2023-05-25T11:13:21.992Z,7.40
2023-05-25T11:16:21.534Z,10.60
2023-05-25T11:18:58.077Z,9.60
2023-05-25T11:21:29.118Z,10.60
2023-05-25T11:24:04.413Z,11.90
2023-05-25T11:26:35.362Z,10.40
2023-05-25T11:29:12.813Z,9.10
2023-05-25T11:31:43.692Z,8.00
2023-05-25T11:34:12.095Z,7.80
2023-05-25T11:36:39.808Z,7.30
2023-05-25T11:39:17.146Z,6.80
2023-05-25T11:42:02.073Z,7.70
2023-05-25T11:44:31.274Z,6.60
2023-05-25T11:47:01.932Z,6.10
2023-05-25T11:49:29.656Z,6.30
2023-05-25T11:51:57.535Z,4.50
2023-05-25T11:54:28.768Z,5.60
2023-05-25T11:57:00.198Z,4.00
2023-05-25T11:59:30.651Z,5.30
2023-05-25T12:02:01.182Z,4.50
2023-05-25T12:04:29.716Z,4.90
2023-05-25T12:07:07.210Z,4.20
2023-05-25T12:09:35.203Z,4.40
2023-05-25T12:12:06.763Z,4.50
2023-05-25T12:14:36.261Z,3.80
2023-05-25T12:17:04.161Z,3.80
2023-05-25T12:19:32.073Z,4.20
2023-05-25T12:21:59.600Z,5.10
2023-05-25T12:24:27.125Z,4.30
2023-05-25T12:26:59.296Z,4.40
2023-05-25T12:29:26.917Z,3.30
2023-05-25T12:32:02.697Z,4.10
2023-05-25T12:34:30.257Z,3.90
2023-05-25T12:36:57.887Z,4.10
2023-05-25T12:39:31.600Z,4.50
2023-05-25T12:41:59.792Z,3.90
2023-05-25T12:44:27.669Z,3.30
2023-05-25T12:46:55.890Z,3.90
2023-05-25T12:49:33.569Z,3.40
2023-05-25T12:52:02.419Z,3.90
2023-05-25T12:54:45.057Z,4.10
2023-05-25T12:59:43.229Z,3.20
2023-05-25T13:02:13.054Z,3.60
2023-05-25T13:04:41.480Z,3.80
2023-05-25T13:07:09.320Z,3.90
2023-05-25T13:09:37.245Z,3.60
2023-05-25T13:12:05.197Z,3.40
2023-05-25T13:14:32.859Z,3.30
2023-05-25T13:17:00.666Z,3.90
2023-05-25T13:19:28.164Z,3.00
2023-05-25T13:21:56.856Z,3.70
2023-05-25T13:24:24.751Z,2.60
